EJA157 KGPH-KCPS
Flight info
| Callsign | EJA157 |
|---|---|
| Flight time | 0h 37m |
| Altitude | 33000 |
| Route | LAKES5 COU DIXEE DIXEE3 |
| Aircraft | C25C/M-L/C |
Departure
| Time | 2026-04-19 18:00 |
|---|---|
| Airport | Midwest National Air Center Airport (KGPH) |
Arrival
| Time | 2026-04-19 18:37 |
|---|---|
| Airport | St Louis Downtown Airport (KCPS) |
| Time | Latitude | Longitude | Altitude | Speed | Heading |
|---|---|---|---|---|---|
| 2026-04-19 17:40 | 39.32931 | -94.30842 | 779 ft | 0 kts | 278° |
| 2026-04-19 17:55 | 39.32930 | -94.30828 | 779 ft | 0 kts | 278° |
| 2026-04-19 17:57 | 39.32942 | -94.30837 | 779 ft | 10 kts | 356° |
| 2026-04-19 17:58 | 39.33015 | -94.30861 | 779 ft | 20 kts | 4° |
| 2026-04-19 17:58 | 39.33178 | -94.30836 | 779 ft | 24 kts | 7° |
| 2026-04-19 17:58 | 39.33339 | -94.30810 | 779 ft | 23 kts | 7° |
| 2026-04-19 17:58 | 39.33495 | -94.30785 | 779 ft | 22 kts | 7° |
| 2026-04-19 17:59 | 39.33577 | -94.30809 | 779 ft | 11 kts | 278° |
| 2026-04-19 17:59 | 39.33578 | -94.30908 | 778 ft | 10 kts | 222° |
| 2026-04-19 17:59 | 39.33423 | -94.30938 | 776 ft | 66 kts | 187° |
| 2026-04-19 17:59 | 39.32641 | -94.31065 | 1098 ft | 143 kts | 188° |
| 2026-04-19 18:00 | 39.31467 | -94.31261 | 1983 ft | 195 kts | 192° |
| 2026-04-19 18:00 | 39.29950 | -94.31447 | 2924 ft | 244 kts | 188° |
| 2026-04-19 18:00 | 39.28193 | -94.31306 | 3861 ft | 264 kts | 163° |
| 2026-04-19 18:00 | 39.26665 | -94.29958 | 4804 ft | 274 kts | 139° |
| 2026-04-19 18:01 | 39.25242 | -94.28250 | 5768 ft | 279 kts | 140° |
| 2026-04-19 18:01 | 39.23737 | -94.26658 | 6738 ft | 278 kts | 145° |
| 2026-04-19 18:01 | 39.22175 | -94.25181 | 7652 ft | 286 kts | 147° |
| 2026-04-19 18:01 | 39.20547 | -94.23624 | 8596 ft | 294 kts | 147° |
| 2026-04-19 18:02 | 39.18889 | -94.22002 | 9576 ft | 300 kts | 147° |
| 2026-04-19 18:02 | 39.17227 | -94.20368 | 10508 ft | 309 kts | 147° |
| 2026-04-19 18:02 | 39.15430 | -94.18628 | 11440 ft | 336 kts | 147° |
| 2026-04-19 18:02 | 39.13483 | -94.16734 | 12397 ft | 365 kts | 146° |
| 2026-04-19 18:03 | 39.11427 | -94.14637 | 13365 ft | 391 kts | 138° |
| 2026-04-19 18:03 | 39.09885 | -94.11682 | 14313 ft | 412 kts | 112° |
| 2026-04-19 18:03 | 39.09195 | -94.08094 | 15214 ft | 407 kts | 92° |
| 2026-04-19 18:03 | 39.08959 | -94.04499 | 16142 ft | 404 kts | 90° |
| 2026-04-19 18:04 | 39.08792 | -94.00865 | 17096 ft | 415 kts | 89° |
| 2026-04-19 18:04 | 39.08578 | -93.97068 | 18093 ft | 428 kts | 91° |
| 2026-04-19 18:04 | 39.08301 | -93.93217 | 19028 ft | 438 kts | 91° |
| 2026-04-19 18:04 | 39.08030 | -93.89281 | 19923 ft | 446 kts | 91° |
| 2026-04-19 18:05 | 39.07781 | -93.85300 | 20841 ft | 452 kts | 91° |
| 2026-04-19 18:05 | 39.07529 | -93.81243 | 21800 ft | 457 kts | 91° |
| 2026-04-19 18:05 | 39.07257 | -93.77156 | 22785 ft | 460 kts | 92° |
| 2026-04-19 18:05 | 39.06975 | -93.73009 | 23816 ft | 462 kts | 92° |
| 2026-04-19 18:06 | 39.06706 | -93.68903 | 24689 ft | 463 kts | 92° |
| 2026-04-19 18:06 | 39.06434 | -93.64766 | 25578 ft | 462 kts | 92° |
| 2026-04-19 18:06 | 39.06161 | -93.60673 | 26489 ft | 460 kts | 92° |
| 2026-04-19 18:06 | 39.05884 | -93.56595 | 27433 ft | 458 kts | 92° |
| 2026-04-19 18:07 | 39.05332 | -93.48455 | 29433 ft | 450 kts | 92° |
| 2026-04-19 18:07 | 39.05062 | -93.44486 | 30458 ft | 445 kts | 92° |
| 2026-04-19 18:07 | 39.04789 | -93.40551 | 31363 ft | 438 kts | 92° |
| 2026-04-19 18:08 | 39.04523 | -93.36680 | 32294 ft | 430 kts | 92° |
| 2026-04-19 18:08 | 39.04260 | -93.32901 | 33207 ft | 424 kts | 92° |
| 2026-04-19 18:08 | 39.03996 | -93.29054 | 33289 ft | 441 kts | 92° |
| 2026-04-19 18:08 | 39.03721 | -93.25058 | 33292 ft | 458 kts | 92° |
| 2026-04-19 18:09 | 39.03426 | -93.20907 | 33302 ft | 472 kts | 92° |
| 2026-04-19 18:09 | 39.03116 | -93.16598 | 33304 ft | 485 kts | 92° |
| 2026-04-19 18:09 | 39.02809 | -93.12240 | 33305 ft | 496 kts | 92° |
| 2026-04-19 18:10 | 39.02168 | -93.03280 | 33301 ft | 513 kts | 93° |
| 2026-04-19 18:10 | 39.01497 | -92.94087 | 33302 ft | 517 kts | 93° |
| 2026-04-19 18:11 | 39.00488 | -92.84888 | 33299 ft | 519 kts | 103° |
| 2026-04-19 18:11 | 38.98082 | -92.76152 | 33299 ft | 519 kts | 112° |
| 2026-04-19 18:12 | 38.95418 | -92.67543 | 33300 ft | 519 kts | 112° |
| 2026-04-19 18:12 | 38.92733 | -92.58936 | 33302 ft | 519 kts | 112° |
| 2026-04-19 18:13 | 38.90059 | -92.50372 | 33297 ft | 519 kts | 112° |
| 2026-04-19 18:13 | 38.87356 | -92.41751 | 33289 ft | 519 kts | 112° |
| 2026-04-19 18:14 | 38.84666 | -92.33186 | 33298 ft | 519 kts | 112° |
| 2026-04-19 18:14 | 38.81962 | -92.24611 | 33296 ft | 519 kts | 113° |
| 2026-04-19 18:15 | 38.79760 | -92.15807 | 33287 ft | 520 kts | 105° |
| 2026-04-19 18:15 | 38.77735 | -92.06916 | 33288 ft | 520 kts | 106° |
| 2026-04-19 18:16 | 38.75752 | -91.98021 | 32708 ft | 504 kts | 106° |
| 2026-04-19 18:16 | 38.74806 | -91.93828 | 31805 ft | 488 kts | 106° |
| 2026-04-19 18:16 | 38.73866 | -91.89711 | 30883 ft | 474 kts | 106° |
| 2026-04-19 18:16 | 38.72955 | -91.85680 | 29894 ft | 463 kts | 105° |
| 2026-04-19 18:17 | 38.72065 | -91.81749 | 28850 ft | 453 kts | 105° |
| 2026-04-19 18:17 | 38.71205 | -91.77953 | 27862 ft | 445 kts | 105° |
| 2026-04-19 18:17 | 38.70345 | -91.74183 | 26890 ft | 437 kts | 105° |
| 2026-04-19 18:17 | 38.69499 | -91.70477 | 25950 ft | 430 kts | 105° |
| 2026-04-19 18:18 | 38.68666 | -91.66820 | 25045 ft | 423 kts | 105° |
| 2026-04-19 18:18 | 38.67842 | -91.63218 | 24159 ft | 418 kts | 105° |
| 2026-04-19 18:18 | 38.67039 | -91.59711 | 23213 ft | 412 kts | 104° |
| 2026-04-19 18:18 | 38.66232 | -91.56195 | 22202 ft | 406 kts | 104° |
| 2026-04-19 18:19 | 38.65444 | -91.52765 | 21245 ft | 401 kts | 104° |
| 2026-04-19 18:19 | 38.64664 | -91.49373 | 20313 ft | 396 kts | 104° |
| 2026-04-19 18:19 | 38.63884 | -91.45987 | 19406 ft | 390 kts | 103° |
| 2026-04-19 18:19 | 38.63124 | -91.42694 | 18523 ft | 385 kts | 103° |
| 2026-04-19 18:20 | 38.62373 | -91.39445 | 17545 ft | 380 kts | 103° |
| 2026-04-19 18:20 | 38.61624 | -91.36209 | 16574 ft | 374 kts | 103° |
| 2026-04-19 18:20 | 38.60892 | -91.33045 | 15658 ft | 370 kts | 103° |
| 2026-04-19 18:20 | 38.60165 | -91.29913 | 14744 ft | 365 kts | 103° |
| 2026-04-19 18:21 | 38.59455 | -91.26853 | 13842 ft | 360 kts | 103° |
| 2026-04-19 18:21 | 38.58752 | -91.23842 | 13287 ft | 343 kts | 103° |
| 2026-04-19 18:21 | 38.58099 | -91.21060 | 13284 ft | 311 kts | 102° |
| 2026-04-19 18:21 | 38.57603 | -91.18476 | 13271 ft | 286 kts | 101° |
| 2026-04-19 18:22 | 38.57053 | -91.16112 | 13228 ft | 284 kts | 103° |
| 2026-04-19 18:22 | 38.56465 | -91.13505 | 13097 ft | 322 kts | 102° |
| 2026-04-19 18:22 | 38.55860 | -91.10689 | 13000 ft | 338 kts | 102° |
| 2026-04-19 18:22 | 38.55228 | -91.07731 | 13001 ft | 346 kts | 102° |
| 2026-04-19 18:23 | 38.54579 | -91.04753 | 12999 ft | 353 kts | 103° |
| 2026-04-19 18:23 | 38.53916 | -91.01716 | 13002 ft | 358 kts | 102° |
| 2026-04-19 18:23 | 38.53239 | -90.98611 | 12997 ft | 363 kts | 102° |
| 2026-04-19 18:23 | 38.52562 | -90.95494 | 12996 ft | 366 kts | 102° |
| 2026-04-19 18:24 | 38.51883 | -90.92380 | 12999 ft | 368 kts | 103° |
| 2026-04-19 18:24 | 38.51190 | -90.89207 | 12997 ft | 370 kts | 102° |
| 2026-04-19 18:24 | 38.50492 | -90.86019 | 13004 ft | 372 kts | 103° |
| 2026-04-19 18:24 | 38.49797 | -90.82851 | 13000 ft | 373 kts | 103° |
| 2026-04-19 18:25 | 38.49095 | -90.79646 | 13000 ft | 373 kts | 103° |
| 2026-04-19 18:25 | 38.48399 | -90.76473 | 12996 ft | 374 kts | 103° |
| 2026-04-19 18:25 | 38.47687 | -90.73257 | 12999 ft | 375 kts | 103° |
| 2026-04-19 18:25 | 38.46990 | -90.70082 | 12997 ft | 375 kts | 103° |
| 2026-04-19 18:26 | 38.46518 | -90.67939 | 13002 ft | 375 kts | 103° |
| 2026-04-19 18:26 | 38.45576 | -90.63681 | 13000 ft | 375 kts | 103° |
| 2026-04-19 18:26 | 38.44867 | -90.60472 | 12992 ft | 375 kts | 103° |
| 2026-04-19 18:26 | 38.44151 | -90.57242 | 12996 ft | 375 kts | 103° |
| 2026-04-19 18:27 | 38.43439 | -90.54043 | 13000 ft | 376 kts | 103° |
| 2026-04-19 18:27 | 38.42733 | -90.50856 | 12996 ft | 376 kts | 103° |
| 2026-04-19 18:27 | 38.42014 | -90.47632 | 13008 ft | 376 kts | 103° |
| 2026-04-19 18:27 | 38.41300 | -90.44423 | 13002 ft | 376 kts | 103° |
| 2026-04-19 18:28 | 38.40598 | -90.41291 | 12492 ft | 357 kts | 103° |
| 2026-04-19 18:28 | 38.39939 | -90.38349 | 11850 ft | 338 kts | 104° |
| 2026-04-19 18:28 | 38.39314 | -90.35543 | 11219 ft | 323 kts | 105° |
| 2026-04-19 18:28 | 38.38705 | -90.32824 | 10590 ft | 309 kts | 105° |
| 2026-04-19 18:29 | 38.38127 | -90.30250 | 9959 ft | 298 kts | 105° |
| 2026-04-19 18:29 | 38.37569 | -90.27752 | 9289 ft | 290 kts | 105° |
| 2026-04-19 18:29 | 38.37016 | -90.25308 | 8569 ft | 287 kts | 104° |
| 2026-04-19 18:29 | 38.36472 | -90.22887 | 7879 ft | 283 kts | 104° |
| 2026-04-19 18:30 | 38.35934 | -90.20463 | 7195 ft | 282 kts | 102° |
| 2026-04-19 18:30 | 38.35892 | -90.18043 | 6506 ft | 274 kts | 77° |
| 2026-04-19 18:30 | 38.36110 | -90.15620 | 5794 ft | 272 kts | 80° |
| 2026-04-19 18:30 | 38.36307 | -90.13232 | 5122 ft | 271 kts | 79° |
| 2026-04-19 18:31 | 38.36505 | -90.10854 | 4417 ft | 269 kts | 81° |
| 2026-04-19 18:31 | 38.37090 | -90.08657 | 3733 ft | 259 kts | 49° |
| 2026-04-19 18:31 | 38.38401 | -90.07168 | 3089 ft | 250 kts | 31° |
| 2026-04-19 18:31 | 38.39792 | -90.05945 | 2993 ft | 231 kts | 31° |
| 2026-04-19 18:32 | 38.41069 | -90.04863 | 2966 ft | 215 kts | 28° |
| 2026-04-19 18:32 | 38.42284 | -90.03826 | 2999 ft | 208 kts | 27° |
| 2026-04-19 18:32 | 38.43507 | -90.02797 | 2993 ft | 215 kts | 27° |
| 2026-04-19 18:32 | 38.44799 | -90.01731 | 2984 ft | 228 kts | 28° |
| 2026-04-19 18:33 | 38.46170 | -90.00603 | 2773 ft | 234 kts | 27° |
| 2026-04-19 18:33 | 38.47551 | -89.99501 | 2443 ft | 234 kts | 21° |
| 2026-04-19 18:33 | 38.49036 | -89.99335 | 2148 ft | 208 kts | 339° |
| 2026-04-19 18:33 | 38.50215 | -90.00253 | 2024 ft | 190 kts | 317° |
| 2026-04-19 18:34 | 38.51020 | -90.01462 | 1997 ft | 171 kts | 298° |
| 2026-04-19 18:34 | 38.51460 | -90.02809 | 2005 ft | 159 kts | 286° |
| 2026-04-19 18:34 | 38.51777 | -90.04133 | 2007 ft | 153 kts | 287° |
| 2026-04-19 18:34 | 38.52181 | -90.05309 | 1995 ft | 133 kts | 302° |
| 2026-04-19 18:35 | 38.52657 | -90.06257 | 1885 ft | 125 kts | 298° |
| 2026-04-19 18:35 | 38.53108 | -90.07195 | 1734 ft | 124 kts | 299° |
| 2026-04-19 18:35 | 38.53569 | -90.08125 | 1567 ft | 128 kts | 299° |
| 2026-04-19 18:35 | 38.54049 | -90.09097 | 1387 ft | 128 kts | 300° |
| 2026-04-19 18:36 | 38.54519 | -90.10049 | 1195 ft | 129 kts | 301° |
| 2026-04-19 18:36 | 38.55002 | -90.11021 | 1017 ft | 131 kts | 301° |
| 2026-04-19 18:36 | 38.55485 | -90.11998 | 841 ft | 130 kts | 300° |
| 2026-04-19 18:36 | 38.55930 | -90.12893 | 683 ft | 112 kts | 302° |
| 2026-04-19 18:37 | 38.56199 | -90.13433 | 581 ft | 106 kts | 302° |
| 2026-04-19 18:37 | 38.56580 | -90.14201 | 431 ft | 99 kts | 302° |
| 2026-04-19 18:37 | 38.56907 | -90.14858 | 413 ft | 69 kts | 301° |
| 2026-04-19 18:37 | 38.57118 | -90.15291 | 411 ft | 48 kts | 302° |
| 2026-04-19 18:38 | 38.57268 | -90.15596 | 413 ft | 30 kts | 302° |
| 2026-04-19 18:38 | 38.57354 | -90.15770 | 416 ft | 19 kts | 302° |
| 2026-04-19 18:38 | 38.57424 | -90.15774 | 415 ft | 12 kts | 32° |
| 2026-04-19 18:38 | 38.57531 | -90.15713 | 415 ft | 17 kts | 339° |
| 2026-04-19 18:39 | 38.57598 | -90.15831 | 412 ft | 16 kts | 302° |
| 2026-04-19 18:39 | 38.57659 | -90.15948 | 412 ft | 16 kts | 302° |
| 2026-04-19 18:39 | 38.57699 | -90.16031 | 410 ft | 0 kts | 285° |
| 2026-04-19 18:39 | 38.57698 | -90.16034 | 411 ft | 0 kts | 262° |
| 2026-04-19 18:40 | 38.57698 | -90.16035 | 411 ft | 0 kts | 261° |